createdAt,value
2022-10-23T00:01:20.189Z,97511.34
2022-10-23T00:03:47.968Z,97512.06
2022-10-23T00:06:15.127Z,97498.88
2022-10-23T00:08:49.655Z,97515.38
2022-10-23T00:11:20.273Z,97498.31
2022-10-23T00:13:47.917Z,97510.72
2022-10-23T00:16:15.202Z,97512.50
2022-10-23T00:18:44.585Z,97499.03
2022-10-23T00:21:16.957Z,97475.81
2022-10-23T00:23:47.000Z,97463.09
2022-10-23T00:26:17.704Z,97486.25
2022-10-23T00:28:50.980Z,97494.41
2022-10-23T00:31:19.297Z,97477.53
2022-10-23T00:33:46.651Z,97473.16
2022-10-23T00:36:18.273Z,97492.75
2022-10-23T00:38:48.710Z,97440.72
2022-10-23T00:41:25.548Z,97472.91
2022-10-23T00:44:17.623Z,97460.72
2022-10-23T00:46:47.845Z,97430.47
2022-10-23T00:49:17.304Z,97478.91
2022-10-23T00:51:52.841Z,97444.06
2022-10-23T00:54:24.772Z,97437.91
2022-10-23T00:56:54.627Z,97469.09
2022-10-23T00:59:21.269Z,97482.94
2022-10-23T01:01:48.471Z,97461.38
2022-10-23T01:04:18.470Z,97454.69
2022-10-23T01:06:54.805Z,97476.66
2022-10-23T01:09:46.647Z,97470.88
2022-10-23T01:12:46.764Z,97485.06
2022-10-23T01:15:27.010Z,97490.41
2022-10-23T01:18:03.162Z,97478.34
2022-10-23T01:20:33.114Z,97483.88
2022-10-23T01:23:24.015Z,97462.88
2022-10-23T01:26:10.740Z,97461.81
2022-10-23T01:28:47.980Z,97477.59
2022-10-23T01:31:25.080Z,97473.19
2022-10-23T01:33:59.061Z,97469.50
2022-10-23T01:36:29.615Z,97431.03
2022-10-23T01:39:00.496Z,97468.25
2022-10-23T01:41:36.405Z,97463.00
2022-10-23T01:44:11.870Z,97442.25
2022-10-23T01:46:39.724Z,97412.38
2022-10-23T01:49:10.879Z,97449.13
2022-10-23T01:51:39.696Z,97434.00
2022-10-23T01:54:10.381Z,97432.00
2022-10-23T01:56:41.312Z,97460.28
2022-10-23T01:59:20.156Z,97462.50
2022-10-23T02:01:52.424Z,97463.06
2022-10-23T02:04:29.650Z,97440.91
2022-10-23T02:06:56.942Z,97445.25
2022-10-23T02:09:23.842Z,97445.13
2022-10-23T02:12:01.334Z,97440.13
2022-10-23T02:14:38.129Z,97453.06
2022-10-23T02:17:30.447Z,97453.41
2022-10-23T02:20:20.681Z,97436.84
2022-10-23T02:23:02.225Z,97455.38
2022-10-23T02:25:35.417Z,97439.63
2022-10-23T02:28:07.341Z,97427.56
2022-10-23T02:30:38.762Z,97409.13
2022-10-23T02:33:07.066Z,97438.00
2022-10-23T02:35:33.796Z,97430.06
2022-10-23T02:38:01.941Z,97429.50
2022-10-23T02:40:41.237Z,97419.56
2022-10-23T02:43:28.382Z,97432.78
2022-10-23T02:46:18.443Z,97440.00
2022-10-23T02:48:53.903Z,97431.38
2022-10-23T02:51:37.172Z,97422.13
2022-10-23T02:54:16.015Z,97417.03
2022-10-23T02:56:53.211Z,97378.06
2022-10-23T02:59:35.388Z,97404.22
2022-10-23T03:02:19.282Z,97400.38
2022-10-23T03:04:47.561Z,97382.88
2022-10-23T03:07:15.192Z,97393.13
2022-10-23T03:09:41.728Z,97403.16
2022-10-23T03:12:08.306Z,97414.13
2022-10-23T03:14:34.887Z,97420.66
2022-10-23T03:17:01.461Z,97391.94
2022-10-23T03:19:28.063Z,97399.53
2022-10-23T03:21:54.653Z,97351.16
2022-10-23T03:24:24.207Z,97368.41
2022-10-23T03:26:50.771Z,97392.31
2022-10-23T03:29:17.365Z,97384.84
2022-10-23T03:31:44.050Z,97362.00
2022-10-23T03:34:11.613Z,97342.75
2022-10-23T03:36:38.481Z,97376.13
2022-10-23T03:39:05.241Z,97315.22
2022-10-23T03:41:32.532Z,97368.53
2022-10-23T03:43:59.287Z,97353.25
2022-10-23T03:46:25.905Z,97361.88
2022-10-23T03:48:52.502Z,97367.81
2022-10-23T03:51:19.057Z,97379.28
2022-10-23T03:53:45.632Z,97368.31
2022-10-23T03:56:12.257Z,97396.19
2022-10-23T03:58:38.837Z,97399.06
2022-10-23T04:01:05.688Z,97376.91
2022-10-23T04:03:32.313Z,97410.97
2022-10-23T04:05:58.913Z,97382.53
2022-10-23T04:08:28.574Z,97387.41
2022-10-23T04:10:58.867Z,97397.69
2022-10-23T04:13:28.204Z,97384.50
2022-10-23T04:15:56.990Z,97399.22
2022-10-23T04:18:23.667Z,97379.63
2022-10-23T04:20:51.152Z,97410.75
2022-10-23T04:23:18.139Z,97385.53
2022-10-23T04:25:44.977Z,97362.78
2022-10-23T04:28:11.892Z,97381.81
2022-10-23T04:30:38.931Z,97393.50
2022-10-23T04:33:05.577Z,97347.66
2022-10-23T04:35:32.197Z,97382.38
2022-10-23T04:37:58.830Z,97344.50
2022-10-23T04:40:28.208Z,97323.13
2022-10-23T04:42:54.790Z,97346.38
2022-10-23T04:45:21.403Z,97346.47
2022-10-23T04:47:48.116Z,97378.22
2022-10-23T04:50:15.557Z,97377.03
2022-10-23T04:52:42.712Z,97357.09
2022-10-23T04:55:09.863Z,97354.75
2022-10-23T04:57:36.477Z,97358.38
2022-10-23T05:00:05.329Z,97327.47
2022-10-23T05:02:32.379Z,97360.00
2022-10-23T05:05:01.911Z,97316.72
2022-10-23T05:07:31.600Z,97327.47
2022-10-23T05:10:01.865Z,97316.41
2022-10-23T05:12:30.909Z,97330.63
2022-10-23T05:15:01.292Z,97328.28
2022-10-23T05:17:34.341Z,97314.28
2022-10-23T05:20:03.776Z,97343.09
2022-10-23T05:22:34.799Z,97287.59
2022-10-23T05:25:02.282Z,97306.47
2022-10-23T05:27:32.137Z,97313.47
2022-10-23T05:30:02.595Z,97295.75
2022-10-23T05:32:31.529Z,97300.78
2022-10-23T05:35:02.371Z,97326.44
2022-10-23T05:37:32.664Z,97305.91
2022-10-23T05:40:03.133Z,97325.03
2022-10-23T05:42:31.164Z,97326.41
2022-10-23T05:44:57.756Z,97294.25
2022-10-23T05:47:24.423Z,97279.56
2022-10-23T05:49:51.090Z,97304.16
2022-10-23T05:52:20.010Z,97309.97
2022-10-23T05:54:46.627Z,97306.81
2022-10-23T05:57:13.279Z,97298.91
2022-10-23T05:59:39.905Z,97309.16
2022-10-23T06:02:06.865Z,97284.94
2022-10-23T06:04:35.469Z,97288.66
2022-10-23T06:07:07.610Z,97332.47
2022-10-23T06:09:34.226Z,97345.06
2022-10-23T06:12:04.010Z,97317.47
2022-10-23T06:14:32.992Z,97301.38
2022-10-23T06:16:59.576Z,97307.31
2022-10-23T06:19:26.165Z,97302.28
2022-10-23T06:21:52.812Z,97287.63
2022-10-23T06:24:19.455Z,97319.75
2022-10-23T06:26:46.043Z,97313.22
2022-10-23T06:29:12.731Z,97278.97
2022-10-23T06:31:39.274Z,97306.94
2022-10-23T06:34:06.212Z,97288.75
2022-10-23T06:36:37.993Z,97255.31
2022-10-23T06:39:08.382Z,97308.13
2022-10-23T06:41:35.000Z,97309.41
2022-10-23T06:44:04.325Z,97304.75
2022-10-23T06:46:36.625Z,97297.50
2022-10-23T06:49:07.761Z,97300.41
2022-10-23T06:51:37.330Z,97294.00
2022-10-23T06:54:07.470Z,97310.09
2022-10-23T06:56:35.466Z,97319.03
2022-10-23T06:59:02.654Z,97308.06
2022-10-23T07:01:30.078Z,97330.13
2022-10-23T07:03:56.881Z,97317.94
2022-10-23T07:06:23.530Z,97316.50
2022-10-23T07:08:50.220Z,97293.97
2022-10-23T07:11:16.867Z,97339.47
2022-10-23T07:13:44.531Z,97329.41
2022-10-23T07:16:22.318Z,97313.31
2022-10-23T07:18:53.565Z,97331.03
2022-10-23T07:21:20.179Z,97333.81
2022-10-23T07:23:46.727Z,97319.94
2022-10-23T07:26:15.607Z,97311.81
2022-10-23T07:28:44.605Z,97328.59
2022-10-23T07:31:11.878Z,97297.97
2022-10-23T07:33:38.522Z,97309.81
2022-10-23T07:36:09.553Z,97307.03
2022-10-23T07:38:38.930Z,97324.25
2022-10-23T07:41:11.515Z,97329.25
2022-10-23T07:43:39.737Z,97317.97
2022-10-23T07:46:09.988Z,97305.75
2022-10-23T07:48:40.206Z,97314.38
2022-10-23T07:51:14.146Z,97343.97
2022-10-23T07:53:42.846Z,97323.09
2022-10-23T07:56:23.430Z,97337.72
2022-10-23T07:58:54.157Z,97312.84
2022-10-23T08:01:30.610Z,97333.28
2022-10-23T08:04:01.036Z,97334.00
2022-10-23T08:06:27.642Z,97313.88
2022-10-23T08:08:56.910Z,97282.63
2022-10-23T08:11:31.144Z,97280.09
2022-10-23T08:13:58.689Z,97291.22
2022-10-23T08:16:25.631Z,97295.03
2022-10-23T08:18:53.328Z,97303.28
2022-10-23T08:21:20.098Z,97289.22
2022-10-23T08:23:46.919Z,97309.69
2022-10-23T08:26:13.507Z,97308.50
2022-10-23T08:28:40.151Z,97300.69
2022-10-23T08:31:12.958Z,97289.00
2022-10-23T08:33:40.289Z,97315.41
2022-10-23T08:36:20.190Z,97305.56
2022-10-23T08:38:47.275Z,97308.72
2022-10-23T08:41:37.540Z,97311.09
2022-10-23T08:44:18.274Z,97300.78
2022-10-23T08:46:49.725Z,97269.72
2022-10-23T08:49:23.380Z,97274.56
2022-10-23T08:51:54.695Z,97276.69
2022-10-23T08:54:27.635Z,97286.13
2022-10-23T08:57:11.541Z,97294.09
2022-10-23T08:59:48.392Z,97278.88
2022-10-23T09:02:36.635Z,97309.31
2022-10-23T09:05:04.661Z,97275.97
2022-10-23T09:07:48.821Z,97295.75
2022-10-23T09:10:33.089Z,97303.25
2022-10-23T09:13:19.170Z,97290.81
2022-10-23T09:16:12.206Z,97294.44
2022-10-23T09:18:42.437Z,97254.16
2022-10-23T09:21:10.585Z,97281.66
2022-10-23T09:23:38.179Z,97263.56
2022-10-23T09:26:14.490Z,97279.28
2022-10-23T09:28:51.070Z,97268.31
2022-10-23T09:31:19.210Z,97256.16
2022-10-23T09:33:59.984Z,97250.53
2022-10-23T09:36:29.130Z,97253.72
2022-10-23T09:38:58.971Z,97241.22
2022-10-23T09:41:40.086Z,97248.50
2022-10-23T09:44:08.217Z,97256.78
2022-10-23T09:46:56.236Z,97255.47
2022-10-23T09:49:25.392Z,97232.94
2022-10-23T09:51:54.668Z,97250.97
2022-10-23T09:54:24.190Z,97251.16
2022-10-23T09:56:53.151Z,97246.09
2022-10-23T09:59:25.370Z,97252.44
2022-10-23T10:01:54.232Z,97261.94
2022-10-23T10:04:33.896Z,97250.50
2022-10-23T10:07:02.380Z,97257.00
2022-10-23T10:09:29.121Z,97260.81
2022-10-23T10:12:02.325Z,97266.06
2022-10-23T10:14:44.160Z,97262.19
2022-10-23T10:17:34.340Z,97258.69
2022-10-23T10:20:45.455Z,97250.19
2022-10-23T10:23:28.638Z,97255.34
2022-10-23T10:26:11.155Z,97252.88
2022-10-23T10:28:52.450Z,97261.81
2022-10-23T10:31:53.175Z,97237.38
2022-10-23T10:35:10.749Z,97254.81
2022-10-23T10:37:49.319Z,97261.38
2022-10-23T10:40:16.298Z,97266.75
2022-10-23T10:43:12.289Z,97247.13
2022-10-23T10:45:51.414Z,97254.31
2022-10-23T10:48:42.040Z,97259.50
2022-10-23T10:51:11.431Z,97249.28
2022-10-23T10:54:10.924Z,97237.91
2022-10-23T10:56:41.650Z,97260.94
2022-10-23T10:59:30.914Z,97252.63
2022-10-23T11:02:27.767Z,97267.22
2022-10-23T11:05:40.831Z,97246.66
2022-10-23T11:08:13.828Z,97250.22
2022-10-23T11:10:45.506Z,97243.75
2022-10-23T11:13:29.418Z,97242.34
2022-10-23T11:16:01.392Z,97238.06
2022-10-23T11:18:31.382Z,97221.78
2022-10-23T11:21:21.845Z,97232.25
2022-10-23T11:24:20.910Z,97214.38
2022-10-23T11:26:56.092Z,97222.06
2022-10-23T11:29:34.524Z,97223.44
2022-10-23T11:32:28.685Z,97217.78
2022-10-23T11:35:20.364Z,97219.16
2022-10-23T11:37:59.048Z,97203.53
2022-10-23T11:40:25.861Z,97217.28
2022-10-23T11:42:52.540Z,97198.25
2022-10-23T11:45:33.017Z,97218.03
2022-10-23T11:48:05.867Z,97221.78
2022-10-23T11:50:53.599Z,97218.56
2022-10-23T11:53:32.455Z,97232.00
2022-10-23T11:56:25.078Z,97238.81
2022-10-23T11:58:54.167Z,97247.78
2022-10-23T12:01:28.349Z,97255.63
2022-10-23T12:04:03.750Z,97258.59
2022-10-23T12:06:41.995Z,97253.16
2022-10-23T12:09:31.691Z,97265.06
2022-10-23T12:12:14.243Z,97269.38
2022-10-23T12:14:53.785Z,97266.16
2022-10-23T12:17:23.313Z,97272.41
2022-10-23T12:19:51.179Z,97276.47
2022-10-23T12:22:20.166Z,97264.03
2022-10-23T12:24:55.984Z,97273.47
2022-10-23T12:27:38.091Z,97266.72
2022-10-23T12:30:24.844Z,97258.09
2022-10-23T12:33:14.529Z,97266.16
2022-10-23T12:35:47.691Z,97268.28
2022-10-23T12:38:18.832Z,97280.41
2022-10-23T12:40:50.991Z,97273.59
2022-10-23T12:43:28.562Z,97271.97
2022-10-23T12:45:56.422Z,97276.00
2022-10-23T12:48:25.030Z,97273.53
2022-10-23T12:50:55.090Z,97285.31
2022-10-23T12:53:23.027Z,97262.28
2022-10-23T12:58:35.492Z,97274.19
2022-10-23T13:01:07.045Z,97276.38
2022-10-23T13:03:35.093Z,97241.38
2022-10-23T13:06:03.546Z,97263.97
2022-10-23T13:08:47.131Z,97253.56
2022-10-23T13:11:20.710Z,97247.69
2022-10-23T13:13:49.777Z,97222.28
2022-10-23T13:16:22.075Z,97236.94
2022-10-23T13:18:49.423Z,97236.63
2022-10-23T13:21:22.128Z,97222.59
2022-10-23T13:23:50.045Z,97198.50
2022-10-23T13:26:29.704Z,97209.59
2022-10-23T13:28:57.719Z,97193.66
2022-10-23T13:31:26.020Z,97228.25
2022-10-23T13:34:01.911Z,97225.00
2022-10-23T13:36:30.846Z,97224.47
2022-10-23T13:39:09.869Z,97229.31
2022-10-23T13:41:40.862Z,97235.50
2022-10-23T13:44:09.407Z,97227.66
2022-10-23T13:46:35.899Z,97220.06
2022-10-23T13:49:02.442Z,97223.03
2022-10-23T13:51:32.296Z,97236.28
2022-10-23T13:53:58.930Z,97231.41
2022-10-23T13:56:27.566Z,97218.09
2022-10-23T13:58:54.361Z,97216.16
2022-10-23T14:01:28.370Z,97237.09
2022-10-23T14:03:56.593Z,97213.41
2022-10-23T14:06:23.638Z,97220.41
2022-10-23T14:08:53.878Z,97193.63
2022-10-23T14:11:20.805Z,97149.53
2022-10-23T14:13:47.673Z,97144.75
2022-10-23T14:16:19.052Z,97130.72
2022-10-23T14:18:46.333Z,97128.53
2022-10-23T14:21:22.281Z,97123.63
2022-10-23T14:23:52.454Z,97118.56
2022-10-23T14:26:22.475Z,97142.06
2022-10-23T14:28:51.583Z,97143.97
2022-10-23T14:31:18.589Z,97150.00
2022-10-23T14:33:54.069Z,97183.56
2022-10-23T14:36:20.846Z,97167.94
2022-10-23T14:38:47.522Z,97177.44
2022-10-23T14:41:18.611Z,97164.16
2022-10-23T14:43:45.842Z,97189.03
2022-10-23T14:46:16.573Z,97193.28
2022-10-23T14:48:57.524Z,97198.91
2022-10-23T14:55:26.621Z,97174.66
2022-10-23T14:57:56.800Z,97192.06
2022-10-23T15:00:24.121Z,97188.53
2022-10-23T15:02:50.639Z,97162.53
2022-10-23T15:05:17.375Z,97179.88
2022-10-23T15:07:46.040Z,97185.81
2022-10-23T15:10:21.662Z,97187.16
2022-10-23T15:12:52.801Z,97151.19
2022-10-23T15:15:22.519Z,97172.59
2022-10-23T15:17:49.372Z,97154.69
2022-10-23T15:20:19.200Z,97169.03
2022-10-23T15:22:46.047Z,97187.78
2022-10-23T15:25:17.011Z,97188.78
2022-10-23T15:27:44.689Z,97187.00
2022-10-23T15:30:11.973Z,97188.38
2022-10-23T15:32:38.474Z,97192.97
2022-10-23T15:35:05.119Z,97186.13
2022-10-23T15:37:31.636Z,97179.69
2022-10-23T15:40:01.214Z,97178.09
2022-10-23T15:42:29.042Z,97166.75
2022-10-23T15:44:55.577Z,97165.84
2022-10-23T15:47:22.114Z,97164.78
2022-10-23T15:49:48.687Z,97163.97
2022-10-23T15:52:15.400Z,97178.25
2022-10-23T15:54:44.015Z,97163.59
2022-10-23T15:57:10.804Z,97181.72
2022-10-23T15:59:37.595Z,97171.75
2022-10-23T16:02:04.398Z,97177.38
2022-10-23T16:04:31.074Z,97177.69
2022-10-23T16:06:57.583Z,97194.69
2022-10-23T16:09:24.232Z,97190.63
2022-10-23T16:11:50.735Z,97200.84
2022-10-23T16:14:19.929Z,97214.91
2022-10-23T16:16:46.465Z,97198.44
2022-10-23T16:19:13.324Z,97203.59
2022-10-23T16:21:41.052Z,97206.81
2022-10-23T16:24:08.527Z,97208.22
2022-10-23T16:26:36.576Z,97198.16
2022-10-23T16:29:06.143Z,97200.94
2022-10-23T16:32:00.249Z,97207.41
2022-10-23T16:34:27.240Z,97168.34
2022-10-23T16:36:54.217Z,97205.16
2022-10-23T16:39:24.084Z,97226.97
2022-10-23T16:41:51.442Z,97196.09
2022-10-23T16:44:18.172Z,97213.63
2022-10-23T16:46:44.752Z,97204.69
2022-10-23T16:49:11.438Z,97226.03
2022-10-23T16:51:38.540Z,97205.25
2022-10-23T16:54:10.761Z,97228.69
2022-10-23T16:56:37.287Z,97223.28
2022-10-23T16:59:03.843Z,97231.63
2022-10-23T17:01:32.382Z,97231.56
2022-10-23T17:03:59.967Z,97241.66
2022-10-23T17:06:29.427Z,97232.50
2022-10-23T17:08:56.718Z,97242.16
2022-10-23T17:11:36.169Z,97244.84
2022-10-23T17:14:06.853Z,97249.66
2022-10-23T17:16:53.431Z,97263.88
2022-10-23T17:19:43.923Z,97263.53
2022-10-23T17:22:12.424Z,97251.16
2022-10-23T17:24:40.271Z,97272.22
2022-10-23T17:27:07.050Z,97287.03
2022-10-23T17:29:33.963Z,97277.22
2022-10-23T17:32:01.025Z,97281.94
2022-10-23T17:34:27.618Z,97280.28
2022-10-23T17:36:55.690Z,97288.88
2022-10-23T17:39:25.654Z,97286.97
2022-10-23T17:41:56.057Z,97291.56
2022-10-23T17:44:25.055Z,97290.47
2022-10-23T17:46:55.060Z,97310.63
2022-10-23T17:49:23.040Z,97306.56
2022-10-23T17:51:57.799Z,97305.81
2022-10-23T17:54:26.854Z,97316.09
2022-10-23T17:56:56.388Z,97308.94
2022-10-23T17:59:25.498Z,97321.97
2022-10-23T18:01:58.793Z,97318.09
2022-10-23T18:04:26.149Z,97324.72
2022-10-23T18:06:57.550Z,97311.31
2022-10-23T18:09:26.031Z,97320.75
2022-10-23T18:11:53.931Z,97294.72
2022-10-23T18:14:21.909Z,97309.50
2022-10-23T18:16:49.127Z,97337.66
2022-10-23T18:19:18.416Z,97332.28
2022-10-23T18:21:45.590Z,97339.75
2022-10-23T18:24:12.537Z,97333.38
2022-10-23T18:26:51.057Z,97343.25
2022-10-23T18:29:18.746Z,97338.00
2022-10-23T18:31:48.318Z,97357.78
2022-10-23T18:34:21.077Z,97358.91
2022-10-23T18:36:50.108Z,97358.97
2022-10-23T18:39:22.560Z,97363.97
2022-10-23T18:41:56.980Z,97370.03
2022-10-23T18:44:29.274Z,97345.63
2022-10-23T18:46:58.170Z,97358.91
2022-10-23T18:49:29.255Z,97364.66
2022-10-23T18:51:56.030Z,97359.41
2022-10-23T18:54:25.991Z,97379.34
2022-10-23T18:56:54.461Z,97363.25
2022-10-23T18:59:24.639Z,97386.38
2022-10-23T19:02:05.683Z,97392.09
2022-10-23T19:04:35.629Z,97374.84
2022-10-23T19:07:03.158Z,97373.88
2022-10-23T19:09:29.947Z,97380.94
2022-10-23T19:11:56.690Z,97396.59
2022-10-23T19:14:25.500Z,97396.44
2022-10-23T19:17:05.857Z,97390.88
2022-10-23T19:19:39.645Z,97397.75
2022-10-23T19:22:09.073Z,97396.03
2022-10-23T19:24:44.344Z,97404.28
2022-10-23T19:27:11.348Z,97403.13
2022-10-23T19:29:42.612Z,97370.03
2022-10-23T19:32:09.902Z,97398.31
2022-10-23T19:34:37.021Z,97402.13
2022-10-23T19:37:03.801Z,97401.91
2022-10-23T19:39:30.527Z,97374.31
2022-10-23T19:41:58.571Z,97400.66
2022-10-23T19:44:28.109Z,97412.72
2022-10-23T19:46:57.614Z,97422.53
2022-10-23T19:49:27.278Z,97422.78
2022-10-23T19:51:56.746Z,97422.94
2022-10-23T19:54:26.363Z,97415.16
2022-10-23T19:56:55.589Z,97421.84
2022-10-23T19:59:22.121Z,97412.25
2022-10-23T20:01:49.356Z,97412.00
2022-10-23T20:04:18.448Z,97419.25
2022-10-23T20:06:45.340Z,97399.59
2022-10-23T20:09:12.079Z,97398.72
2022-10-23T20:11:40.289Z,97430.09
2022-10-23T20:14:07.573Z,97426.34
2022-10-23T20:16:38.876Z,97391.34
2022-10-23T20:19:08.202Z,97423.81
2022-10-23T20:21:36.601Z,97429.81
2022-10-23T20:24:05.664Z,97408.25
2022-10-23T20:26:32.579Z,97410.75
2022-10-23T20:28:59.387Z,97397.88
2022-10-23T20:31:27.468Z,97399.19
2022-10-23T20:33:59.399Z,97413.84
2022-10-23T20:36:27.846Z,97450.13
2022-10-23T20:38:58.720Z,97454.22
2022-10-23T20:41:28.531Z,97435.13
2022-10-23T20:43:59.297Z,97438.16
2022-10-23T20:46:26.973Z,97450.88
2022-10-23T20:48:56.270Z,97454.56
2022-10-23T20:51:26.134Z,97452.59
2022-10-23T20:53:57.405Z,97423.47
2022-10-23T20:56:31.382Z,97428.09
2022-10-23T20:59:10.564Z,97466.91
2022-10-23T21:01:43.369Z,97462.50
2022-10-23T21:04:14.269Z,97435.59
2022-10-23T21:06:57.657Z,97481.06
2022-10-23T21:09:31.375Z,97437.13
2022-10-23T21:11:57.958Z,97470.19
2022-10-23T21:14:27.551Z,97439.72
2022-10-23T21:16:54.191Z,97455.69
2022-10-23T21:19:20.741Z,97441.59
2022-10-23T21:21:47.298Z,97467.78
2022-10-23T21:24:16.330Z,97482.50
2022-10-23T21:26:43.482Z,97480.63
2022-10-23T21:29:18.637Z,97470.72
2022-10-23T21:31:45.909Z,97470.78
2022-10-23T21:34:12.575Z,97455.28
2022-10-23T21:36:48.478Z,97481.97
2022-10-23T21:39:20.705Z,97490.94
2022-10-23T21:41:47.366Z,97485.41
2022-10-23T21:44:14.005Z,97481.88
2022-10-23T21:46:41.762Z,97483.16
2022-10-23T21:49:10.780Z,97477.34
2022-10-23T21:51:37.887Z,97493.53
2022-10-23T21:54:06.766Z,97493.44
2022-10-23T21:56:43.847Z,97450.06
2022-10-23T21:59:13.473Z,97499.53
2022-10-23T22:01:41.805Z,97508.97
2022-10-23T22:04:10.230Z,97504.53
2022-10-23T22:06:38.073Z,97493.19
2022-10-23T22:09:05.711Z,97508.97
2022-10-23T22:11:32.679Z,97494.59
2022-10-23T22:14:02.585Z,97467.31
2022-10-23T22:16:32.560Z,97508.97
2022-10-23T22:18:59.807Z,97490.53
2022-10-23T22:21:31.275Z,97508.78
2022-10-23T22:23:59.911Z,97520.94
2022-10-23T22:26:32.427Z,97465.03
2022-10-23T22:29:02.721Z,97506.34
2022-10-23T22:31:31.769Z,97515.69
2022-10-23T22:33:59.838Z,97518.56
2022-10-23T22:36:26.729Z,97513.09
2022-10-23T22:38:54.539Z,97503.06
2022-10-23T22:41:23.920Z,97491.16
2022-10-23T22:43:56.133Z,97506.78
2022-10-23T22:46:23.703Z,97480.25
2022-10-23T22:48:50.436Z,97511.00
2022-10-23T22:51:19.734Z,97518.09
2022-10-23T22:53:47.204Z,97503.94
2022-10-23T22:56:17.676Z,97493.31
2022-10-23T22:58:44.485Z,97478.25
2022-10-23T23:01:15.593Z,97499.66
2022-10-23T23:03:42.226Z,97509.81
2022-10-23T23:06:09.859Z,97514.84
2022-10-23T23:11:22.786Z,97515.44
2022-10-23T23:13:50.926Z,97504.00
2022-10-23T23:16:23.891Z,97478.44
2022-10-23T23:18:51.815Z,97503.38
2022-10-23T23:21:19.678Z,97515.81
2022-10-23T23:23:47.484Z,97514.41
2022-10-23T23:26:15.173Z,97519.41
2022-10-23T23:28:41.764Z,97498.81
2022-10-23T23:31:13.631Z,97533.31
2022-10-23T23:33:40.207Z,97546.81
2022-10-23T23:36:12.717Z,97550.44
2022-10-23T23:38:39.993Z,97555.06
2022-10-23T23:41:11.224Z,97556.94
2022-10-23T23:43:37.857Z,97542.47
2022-10-23T23:46:05.554Z,97544.34
2022-10-23T23:48:32.223Z,97546.81
2022-10-23T23:50:58.831Z,97516.97
2022-10-23T23:53:25.478Z,97541.59
2022-10-23T23:55:52.070Z,97558.91
2022-10-23T23:58:18.630Z,97567.41
